Time;durP1;ratioP1;P1;durP2;ratioP2;P2;SDS_P1;SDS_P2;PMS_P1;PMS_P2;Temp;Humidity;BMP_temperature;BMP_pressure;BME280_temperature;BME280_humidity;BME280_pressure;Samples;Min_cycle;Max_cycle;Signal;HPM_P1;HPM_P2
2023/08/09 00:00:08;;;;;;;1.80;1.70;;;14.30;99.90;;;;;;5083469;28;20198;-57
2023/08/09 00:02:34;;;;;;;2.17;1.30;;;14.30;99.90;;;;;;5083391;28;20189;-56
2023/08/09 00:04:59;;;;;;;2.07;1.73;;;14.40;99.90;;;;;;5082762;28;20192;-55
2023/08/09 00:07:24;;;;;;;3.57;1.53;;;14.40;99.90;;;;;;5083489;28;20212;-56
2023/08/09 00:09:50;;;;;;;3.43;1.30;;;14.40;99.90;;;;;;5082955;28;20204;-56
2023/08/09 00:12:16;;;;;;;2.87;1.90;;;14.30;99.90;;;;;;5064347;28;20276;-56
2023/08/09 00:14:41;;;;;;;1.87;1.50;;;14.10;99.90;;;;;;5082572;28;20492;-57
2023/08/09 00:17:07;;;;;;;1.83;1.50;;;14.20;99.90;;;;;;5082807;28;20197;-56
2023/08/09 00:19:32;;;;;;;1.97;1.63;;;14.20;99.90;;;;;;5062681;28;20705;-56
2023/08/09 00:21:58;;;;;;;3.03;1.50;;;14.30;99.90;;;;;;5082698;28;20196;-57
2023/08/09 00:24:23;;;;;;;2.20;1.60;;;14.20;99.90;;;;;;5074101;28;20198;-57
2023/08/09 00:26:50;;;;;;;3.30;1.60;;;14.20;99.90;;;;;;5082853;28;20298;-57
2023/08/09 00:29:15;;;;;;;3.30;1.53;;;14.30;99.90;;;;;;5082539;28;20806;-58
2023/08/09 00:31:41;;;;;;;5.37;1.97;;;14.30;99.90;;;;;;5082488;28;20209;-57
2023/08/09 00:34:06;;;;;;;3.93;1.60;;;14.30;99.90;;;;;;5082048;28;20702;-57
2023/08/09 00:36:32;;;;;;;1.93;1.77;;;14.20;99.90;;;;;;5082552;28;20197;-57
2023/08/09 00:38:57;;;;;;;2.33;1.53;;;14.10;99.90;;;;;;5098369;28;20677;-58
2023/08/09 00:41:23;;;;;;;2.90;1.50;;;14.10;99.90;;;;;;5101692;28;20252;-57
2023/08/09 00:43:48;;;;;;;4.30;1.73;;;14.10;99.90;;;;;;5077811;28;20192;-57
2023/08/09 00:46:14;;;;;;;5.43;1.80;;;14.10;99.90;;;;;;5097479;28;20665;-56
2023/08/09 00:48:39;;;;;;;4.27;1.37;;;14.00;99.90;;;;;;5100339;28;20230;-57
2023/08/09 00:51:05;;;;;;;2.80;1.20;;;14.00;99.90;;;;;;5096887;28;20189;-57
2023/08/09 00:53:31;;;;;;;1.20;1.20;;;14.10;99.90;;;;;;5093190;28;20200;-57
2023/08/09 00:55:57;;;;;;;1.17;1.10;;;14.20;99.90;;;;;;5101981;28;20195;-57
2023/08/09 00:58:23;;;;;;;3.97;1.47;;;14.30;99.90;;;;;;5095751;28;20706;-56
2023/08/09 01:00:49;;;;;;;3.23;1.67;;;14.30;99.90;;;;;;5096357;28;20730;-55
2023/08/09 01:03:15;;;;;;;3.73;1.23;;;14.20;99.90;;;;;;5102113;28;20185;-56
2023/08/09 01:05:53;;;;;;;2.27;1.40;;;14.20;99.90;;;;;;5102021;28;20663;-56
2023/08/09 01:08:53;;;;;;;1.93;1.80;;;14.20;99.90;;;;;;5093586;28;20220;-56
2023/08/09 01:11:45;;;;;;;1.50;1.10;;;14.30;99.90;;;;;;5098913;28;20207;-55
2023/08/09 01:14:12;;;;;;;3.33;1.30;;;14.30;99.90;;;;;;5101134;28;20223;-56
2023/08/09 01:16:37;;;;;;;1.47;1.33;;;14.40;99.90;;;;;;5097428;28;20787;-56
2023/08/09 01:19:09;;;;;;;7.20;1.60;;;14.30;99.90;;;;;;5099986;28;20222;-56
2023/08/09 01:21:38;;;;;;;1.63;1.47;;;14.30;99.90;;;;;;5096246;28;20196;-56
2023/08/09 01:24:05;;;;;;;1.63;1.50;;;14.30;99.90;;;;;;5093960;28;20418;-57
2023/08/09 01:26:30;;;;;;;2.83;1.10;;;14.30;99.90;;;;;;5082072;28;20306;-57
2023/08/09 01:28:56;;;;;;;2.17;1.30;;;14.40;99.90;;;;;;5101811;28;20310;-57
2023/08/09 01:31:21;;;;;;;3.37;1.67;;;14.40;99.90;;;;;;5100202;28;20228;-56
2023/08/09 01:33:47;;;;;;;1.40;1.30;;;14.40;99.90;;;;;;5101698;28;20185;-56
2023/08/09 01:36:23;;;;;;;1.40;1.30;;;14.30;99.90;;;;;;5096725;28;20207;-56
2023/08/09 01:38:55;;;;;;;1.67;1.10;;;14.40;99.90;;;;;;5098030;28;20230;-55
2023/08/09 01:41:21;;;;;;;1.97;1.10;;;14.30;99.90;;;;;;5093812;28;20211;-57
2023/08/09 01:43:47;;;;;;;4.20;1.30;;;14.30;99.90;;;;;;5099757;28;20835;-57
2023/08/09 01:46:13;;;;;;;3.10;1.40;;;14.50;99.90;;;;;;5096527;28;20246;-61
2023/08/09 01:48:40;;;;;;;1.27;1.17;;;14.40;99.90;;;;;;5098255;28;20307;-60
2023/08/09 01:51:06;;;;;;;1.60;1.20;;;14.40;99.90;;;;;;5101968;28;20177;-61
2023/08/09 01:53:31;;;;;;;3.20;1.37;;;14.40;99.90;;;;;;5102057;28;20196;-61
2023/08/09 01:55:57;;;;;;;3.60;1.53;;;14.40;99.90;;;;;;5101380;28;20754;-59
2023/08/09 01:58:22;;;;;;;3.67;1.77;;;14.50;99.90;;;;;;5102312;28;20196;-55
2023/08/09 02:00:48;;;;;;;2.40;1.20;;;14.50;99.90;;;;;;5094578;28;20193;-57
2023/08/09 02:03:13;;;;;;;6.03;1.83;;;14.50;99.90;;;;;;5100812;28;20193;-58
2023/08/09 02:05:39;;;;;;;3.53;1.23;;;14.50;99.90;;;;;;5101723;28;20266;-58
2023/08/09 02:08:05;;;;;;;6.80;1.53;;;14.50;99.90;;;;;;5099643;28;20674;-57
2023/08/09 02:10:31;;;;;;;3.47;1.27;;;14.50;99.90;;;;;;5101385;28;20189;-58
2023/08/09 02:12:57;;;;;;;3.70;1.13;;;14.50;99.90;;;;;;5097044;28;20213;-57
2023/08/09 02:15:23;;;;;;;2.70;1.33;;;14.60;99.90;;;;;;5100577;28;20281;-57
2023/08/09 02:17:49;;;;;;;2.97;1.60;;;14.60;99.90;;;;;;5105471;28;20209;-57
2023/08/09 02:20:15;;;;;;;1.20;1.10;;;14.60;99.90;;;;;;5100459;28;20201;-57
2023/08/09 02:22:41;;;;;;;3.77;1.50;;;14.60;99.90;;;;;;5098006;28;20287;-57
2023/08/09 02:25:13;;;;;;;3.60;1.73;;;14.50;99.90;;;;;;5094102;28;20186;-57
2023/08/09 02:27:39;;;;;;;1.37;1.27;;;14.50;99.90;;;;;;5097655;28;20219;-57
2023/08/09 02:30:06;;;;;;;1.43;1.20;;;14.40;99.90;;;;;;5105404;28;20192;-56
2023/08/09 02:32:32;;;;;;;2.97;1.17;;;14.40;99.90;;;;;;5102700;28;20201;-56
2023/08/09 02:34:58;;;;;;;4.00;1.60;;;14.50;99.90;;;;;;5106326;28;20175;-56
2023/08/09 02:37:24;;;;;;;1.57;1.37;;;14.50;99.90;;;;;;5104853;28;20225;-57
2023/08/09 02:39:50;;;;;;;3.53;1.47;;;14.50;99.90;;;;;;5105066;28;20184;-57
2023/08/09 02:42:16;;;;;;;2.17;1.63;;;14.50;99.90;;;;;;5104518;28;20188;-57
2023/08/09 02:44:42;;;;;;;2.00;1.73;;;14.60;99.90;;;;;;5072640;28;20192;-57
2023/08/09 02:47:08;;;;;;;2.07;1.40;;;14.60;99.90;;;;;;5098860;28;20270;-56
2023/08/09 02:49:34;;;;;;;0.90;0.90;;;14.70;99.90;;;;;;5104601;28;20220;-56
2023/08/09 02:51:59;;;;;;;1.87;1.20;;;14.60;99.90;;;;;;5104790;28;20276;-55
2023/08/09 02:54:25;;;;;;;2.17;1.37;;;14.20;99.90;;;;;;5086219;28;20287;-57
2023/08/09 02:56:51;;;;;;;2.27;1.53;;;14.00;99.90;;;;;;5104963;28;20204;-56
2023/08/09 02:59:16;;;;;;;3.43;1.47;;;14.00;99.90;;;;;;5104156;28;20264;-56
2023/08/09 03:01:46;;;;;;;2.70;1.40;;;13.90;99.90;;;;;;5104639;28;20670;-58
2023/08/09 03:04:11;;;;;;;2.93;2.30;;;13.90;99.90;;;;;;5104869;28;20181;-56
2023/08/09 03:06:37;;;;;;;5.63;2.00;;;13.90;99.90;;;;;;5102222;28;20193;-56
2023/08/09 03:09:03;;;;;;;3.13;1.60;;;14.10;99.90;;;;;;5098550;28;20212;-56
2023/08/09 03:11:29;;;;;;;2.80;1.60;;;14.20;99.90;;;;;;5092801;28;20185;-56
2023/08/09 03:13:54;;;;;;;2.97;1.87;;;14.20;99.90;;;;;;5101116;28;20203;-56
2023/08/09 03:16:21;;;;;;;8.97;1.87;;;14.10;99.90;;;;;;5102141;28;20188;-56
2023/08/09 03:18:48;;;;;;;2.27;1.50;;;14.20;99.90;;;;;;5104196;28;20212;-56
2023/08/09 03:21:13;;;;;;;2.27;1.20;;;14.30;99.90;;;;;;5104187;28;20274;-56
2023/08/09 03:23:39;;;;;;;1.77;1.50;;;14.40;99.90;;;;;;5084790;28;20299;-56
2023/08/09 03:26:05;;;;;;;2.60;1.47;;;14.40;99.90;;;;;;5102426;28;20232;-56
2023/08/09 03:28:32;;;;;;;4.13;1.50;;;14.50;99.90;;;;;;5099004;28;20217;-57
2023/08/09 03:30:58;;;;;;;1.77;1.30;;;14.40;99.90;;;;;;5097868;28;20233;-58
2023/08/09 03:33:24;;;;;;;2.30;1.40;;;14.40;99.90;;;;;;5101151;28;20197;-57
2023/08/09 03:35:50;;;;;;;3.90;1.43;;;14.30;99.90;;;;;;5098074;28;20229;-57
2023/08/09 03:38:16;;;;;;;4.63;1.87;;;14.10;99.90;;;;;;5102383;28;20256;-55
2023/08/09 03:40:41;;;;;;;6.03;2.30;;;14.00;99.90;;;;;;5099624;28;20196;-58
2023/08/09 03:43:07;;;;;;;3.23;1.57;;;13.80;99.90;;;;;;5096477;28;20274;-57
2023/08/09 03:45:32;;;;;;;3.23;1.53;;;13.80;99.90;;;;;;5101374;28;20348;-57
2023/08/09 03:47:58;;;;;;;2.40;1.27;;;13.80;99.90;;;;;;5084635;28;20694;-56
2023/08/09 03:50:25;;;;;;;5.97;1.70;;;13.90;99.90;;;;;;5103491;28;20662;-56
2023/08/09 03:52:51;;;;;;;4.97;2.03;;;14.00;99.90;;;;;;5103439;28;20220;-56
2023/08/09 03:55:16;;;;;;;2.23;1.67;;;14.10;99.90;;;;;;5103113;28;20236;-56
2023/08/09 03:57:42;;;;;;;3.77;1.53;;;14.00;99.90;;;;;;5097922;28;20732;-55
2023/08/09 04:00:09;;;;;;;2.40;1.40;;;14.00;99.90;;;;;;5100668;28;20185;-57
2023/08/09 04:02:34;;;;;;;4.10;1.50;;;14.20;99.90;;;;;;5096116;28;20711;-56
2023/08/09 04:05:00;;;;;;;2.07;1.40;;;14.10;99.90;;;;;;5103640;28;20264;-57
2023/08/09 04:07:25;;;;;;;1.67;1.50;;;14.20;99.90;;;;;;5098065;28;20448;-57
2023/08/09 04:09:51;;;;;;;1.50;1.10;;;14.10;99.90;;;;;;5097263;28;20543;-56
2023/08/09 04:12:17;;;;;;;3.50;1.50;;;13.90;99.90;;;;;;5101729;28;20195;-57
2023/08/09 04:14:43;;;;;;;2.50;1.53;;;13.80;99.90;;;;;;5103160;28;20202;-60
2023/08/09 04:17:08;;;;;;;1.67;1.50;;;13.70;99.90;;;;;;5103488;28;20291;-62
2023/08/09 04:19:33;;;;;;;2.97;1.50;;;13.70;99.90;;;;;;5102901;28;20758;-59
2023/08/09 04:21:59;;;;;;;2.03;1.70;;;13.70;99.90;;;;;;5100915;28;20184;-59
2023/08/09 04:24:24;;;;;;;1.80;1.27;;;13.70;99.90;;;;;;5075476;28;20189;-59
2023/08/09 04:26:51;;;;;;;1.40;1.30;;;13.90;99.90;;;;;;5100235;28;20231;-56
2023/08/09 04:29:17;;;;;;;1.60;1.50;;;14.00;99.90;;;;;;5095762;28;20221;-64
2023/08/09 04:31:44;;;;;;;3.53;2.00;;;14.10;99.90;;;;;;5102357;28;20220;-63
2023/08/09 04:34:10;;;;;;;3.50;1.43;;;13.80;99.90;;;;;;5094997;28;20212;-61
2023/08/09 04:36:36;;;;;;;3.90;1.83;;;13.90;99.90;;;;;;5101958;28;20188;-58
2023/08/09 04:39:02;;;;;;;3.03;1.40;;;13.90;99.90;;;;;;5100616;28;21192;-58
2023/08/09 04:41:28;;;;;;;2.17;1.40;;;13.80;99.90;;;;;;5101989;28;20195;-57
2023/08/09 04:43:53;;;;;;;2.43;1.50;;;14.00;99.90;;;;;;5097541;28;20560;-58
2023/08/09 04:46:19;;;;;;;2.93;1.47;;;14.10;99.90;;;;;;5101494;28;20202;-59
2023/08/09 04:48:45;;;;;;;3.20;1.73;;;14.00;99.90;;;;;;5082626;28;20216;-58
2023/08/09 04:51:11;;;;;;;3.23;1.40;;;13.90;99.90;;;;;;5101707;28;20188;-60
2023/08/09 04:53:36;;;;;;;2.47;1.50;;;13.90;99.90;;;;;;5101441;28;20192;-57
2023/08/09 04:56:03;;;;;;;2.57;2.03;;;13.80;99.90;;;;;;5102241;28;20896;-56
2023/08/09 04:58:29;;;;;;;2.77;1.33;;;13.80;99.90;;;;;;5101530;28;20197;-61
2023/08/09 05:00:55;;;;;;;2.97;1.43;;;13.70;99.90;;;;;;5101997;28;20203;-60
2023/08/09 05:03:21;;;;;;;3.17;1.37;;;13.80;99.90;;;;;;5100001;28;20204;-61
2023/08/09 05:05:46;;;;;;;1.53;1.07;;;13.80;99.90;;;;;;5083262;28;20204;-58
2023/08/09 05:08:12;;;;;;;3.23;1.30;;;13.60;99.90;;;;;;5102210;28;20220;-58
2023/08/09 05:10:38;;;;;;;2.97;1.20;;;13.60;99.90;;;;;;5097982;28;20184;-59
2023/08/09 05:13:03;;;;;;;3.23;1.30;;;13.80;99.90;;;;;;5102417;28;20193;-58
2023/08/09 05:15:28;;;;;;;3.53;1.27;;;13.80;99.90;;;;;;5084308;28;20276;-59
2023/08/09 05:17:54;;;;;;;4.37;1.53;;;14.00;99.90;;;;;;5102620;28;20275;-58
2023/08/09 05:20:19;;;;;;;1.83;1.27;;;14.20;99.90;;;;;;5102025;28;20224;-59
2023/08/09 05:22:45;;;;;;;4.73;1.63;;;14.10;99.90;;;;;;5100149;28;20200;-58
2023/08/09 05:25:11;;;;;;;6.33;3.00;;;13.90;99.90;;;;;;5093501;28;20200;-61
2023/08/09 05:27:36;;;;;;;4.70;1.47;;;14.00;99.90;;;;;;5097383;28;20180;-63
2023/08/09 05:30:04;;;;;;;3.43;1.43;;;13.90;99.90;;;;;;5079561;28;20192;-55
2023/08/09 05:32:29;;;;;;;2.10;1.70;;;14.00;99.90;;;;;;5088542;28;20665;-53
2023/08/09 05:34:55;;;;;;;1.67;1.50;;;14.00;99.90;;;;;;5101949;28;20184;-54
2023/08/09 05:37:20;;;;;;;4.07;2.20;;;14.10;99.90;;;;;;5100169;28;20271;-59
2023/08/09 05:39:46;;;;;;;4.33;2.10;;;14.10;99.90;;;;;;5094600;28;20188;-60
2023/08/09 05:42:12;;;;;;;5.73;1.67;;;14.10;99.90;;;;;;5101236;28;20192;-54
2023/08/09 05:44:37;;;;;;;3.67;1.27;;;14.30;99.90;;;;;;5097730;28;20945;-54
2023/08/09 05:47:03;;;;;;;3.73;1.50;;;14.40;99.90;;;;;;5083796;28;20189;-55
2023/08/09 05:49:28;;;;;;;1.70;1.10;;;14.50;99.90;;;;;;5105938;28;20302;-53
2023/08/09 05:51:54;;;;;;;1.50;1.30;;;14.30;99.90;;;;;;5106626;28;20195;-53
2023/08/09 05:54:20;;;;;;;2.70;1.70;;;14.30;99.90;;;;;;5087234;28;20673;-57
2023/08/09 05:56:45;;;;;;;5.70;1.63;;;14.40;99.90;;;;;;5105835;28;20203;-57
2023/08/09 05:59:11;;;;;;;2.77;1.43;;;14.40;99.90;;;;;;5087513;28;20201;-57
2023/08/09 06:01:37;;;;;;;4.73;1.50;;;14.50;99.90;;;;;;5086546;28;20226;-58
2023/08/09 06:04:03;;;;;;;2.63;1.73;;;14.60;99.90;;;;;;5103373;28;20284;-57
2023/08/09 06:06:29;;;;;;;4.10;1.63;;;14.70;99.90;;;;;;5105542;28;20192;-57
2023/08/09 06:08:54;;;;;;;4.97;1.60;;;14.70;99.90;;;;;;5105355;28;20282;-65
2023/08/09 06:11:20;;;;;;;3.23;1.27;;;14.80;99.90;;;;;;5104932;28;20284;-59
2023/08/09 06:13:46;;;;;;;2.93;1.50;;;14.90;99.90;;;;;;5104819;28;20944;-59
2023/08/09 06:16:11;;;;;;;1.60;1.47;;;14.90;99.90;;;;;;5104891;28;20650;-60
2023/08/09 06:18:37;;;;;;;1.53;1.23;;;14.70;99.90;;;;;;5102893;28;20578;-53
2023/08/09 06:21:04;;;;;;;3.17;1.50;;;14.70;99.90;;;;;;5105263;28;20701;-54
2023/08/09 06:23:29;;;;;;;3.27;1.30;;;14.80;99.90;;;;;;5105698;28;20228;-55
2023/08/09 06:25:55;;;;;;;1.53;1.30;;;14.70;99.90;;;;;;5094877;28;20698;-56
2023/08/09 06:28:21;;;;;;;1.30;1.20;;;14.90;99.90;;;;;;5101888;28;20419;-56
2023/08/09 06:30:46;;;;;;;4.13;1.70;;;14.70;99.90;;;;;;5103289;28;20189;-58
2023/08/09 06:33:12;;;;;;;3.53;1.83;;;14.70;99.90;;;;;;5077864;28;20834;-56
2023/08/09 06:35:37;;;;;;;3.40;1.13;;;14.70;99.90;;;;;;5102873;28;20200;-56
2023/08/09 06:38:03;;;;;;;2.00;1.37;;;14.70;99.90;;;;;;5103864;27;20278;-56
2023/08/09 06:40:29;;;;;;;2.10;1.30;;;14.80;99.90;;;;;;5101921;27;20200;-56
2023/08/09 06:42:54;;;;;;;2.77;2.07;;;15.00;99.90;;;;;;5098982;27;20189;-54
2023/08/09 06:45:20;;;;;;;3.73;1.77;;;14.90;99.90;;;;;;5101601;28;20916;-53
2023/08/09 06:47:45;;;;;;;4.97;1.63;;;15.00;99.90;;;;;;5104239;28;20685;-56
2023/08/09 06:50:11;;;;;;;6.47;1.57;;;15.10;99.90;;;;;;5104146;28;20185;-55
2023/08/09 06:52:37;;;;;;;2.67;1.70;;;15.10;99.90;;;;;;5103738;28;20181;-57
2023/08/09 06:55:07;;;;;;;4.57;1.77;;;15.20;99.90;;;;;;5104222;28;20892;-54
2023/08/09 06:57:34;;;;;;;3.93;1.40;;;15.40;99.90;;;;;;5104227;28;20205;-54
2023/08/09 07:00:00;;;;;;;4.20;1.60;;;15.40;99.90;;;;;;5102718;28;20193;-56
2023/08/09 07:02:26;;;;;;;5.70;2.40;;;15.20;99.90;;;;;;5101448;28;20204;-59
2023/08/09 07:04:54;;;;;;;5.03;1.63;;;15.20;99.90;;;;;;5068872;28;20440;-55
2023/08/09 07:07:22;;;;;;;2.00;1.63;;;15.20;99.90;;;;;;5104129;28;20279;-53
2023/08/09 07:09:48;;;;;;;3.30;1.70;;;15.10;99.90;;;;;;5098732;28;20214;-57
2023/08/09 07:12:13;;;;;;;2.13;1.93;;;15.10;99.90;;;;;;5083333;28;20196;-58
2023/08/09 07:14:40;;;;;;;2.73;1.47;;;15.20;99.90;;;;;;5085884;28;20185;-58
2023/08/09 07:17:05;;;;;;;4.13;2.07;;;15.50;99.90;;;;;;5104730;28;20204;-58
2023/08/09 07:19:31;;;;;;;2.50;1.27;;;15.50;99.90;;;;;;5101573;28;20196;-58
2023/08/09 07:21:56;;;;;;;3.80;1.60;;;15.70;99.90;;;;;;5085687;27;20192;-53
2023/08/09 07:24:22;;;;;;;3.90;1.60;;;15.80;99.90;;;;;;5080063;27;20435;-54
2023/08/09 07:26:47;;;;;;;6.10;1.87;;;15.90;99.90;;;;;;5108277;27;20207;-56
2023/08/09 07:29:13;;;;;;;4.73;1.40;;;15.90;99.90;;;;;;5101667;28;20221;-54
2023/08/09 07:31:39;;;;;;;6.03;1.63;;;15.90;99.90;;;;;;5099515;27;20193;-54
2023/08/09 07:34:04;;;;;;;4.20;1.30;;;15.90;99.90;;;;;;5104512;27;20806;-56
2023/08/09 07:36:30;;;;;;;4.30;1.57;;;16.00;99.90;;;;;;5105968;27;20214;-60
2023/08/09 07:38:57;;;;;;;4.10;1.77;;;16.00;99.90;;;;;;5102665;27;20228;-61
2023/08/09 07:41:22;;;;;;;3.13;1.30;;;16.00;99.90;;;;;;5106566;27;20188;-58
2023/08/09 07:43:48;;;;;;;3.97;2.07;;;16.20;99.90;;;;;;5102050;28;20195;-58
2023/08/09 07:46:14;;;;;;;3.13;1.70;;;16.30;99.90;;;;;;5102632;28;20219;-58
2023/08/09 07:48:40;;;;;;;5.33;1.67;;;16.40;99.90;;;;;;5107391;27;20652;-57
2023/08/09 07:51:08;;;;;;;4.10;1.47;;;16.30;99.90;;;;;;5102690;28;20193;-63
2023/08/09 07:53:33;;;;;;;5.93;1.60;;;16.30;99.90;;;;;;5103940;27;20196;-60
2023/08/09 07:55:58;;;;;;;10.57;3.27;;;16.30;99.90;;;;;;5111467;27;20668;-63
2023/08/09 07:58:24;;;;;;;4.50;1.63;;;16.50;99.90;;;;;;5099881;27;20694;-63
2023/08/09 08:00:49;;;;;;;4.87;1.47;;;16.30;99.90;;;;;;5098883;28;20264;-64
2023/08/09 08:03:15;;;;;;;6.50;1.60;;;16.30;99.90;;;;;;5103729;28;20586;-59
2023/08/09 08:05:41;;;;;;;3.70;1.33;;;16.30;99.90;;;;;;5103827;28;20230;-64
2023/08/09 08:08:07;;;;;;;3.13;1.47;;;16.40;99.90;;;;;;5104104;27;20501;-59
2023/08/09 08:10:33;;;;;;;2.03;1.63;;;16.40;99.90;;;;;;5112873;27;20608;-58
2023/08/09 08:12:58;;;;;;;2.47;1.60;;;16.50;99.90;;;;;;5110600;27;20199;-58
2023/08/09 08:15:24;;;;;;;5.77;1.80;;;16.50;99.90;;;;;;5109349;27;20184;-58
2023/08/09 08:17:52;;;;;;;3.67;1.30;;;16.40;99.90;;;;;;5106792;27;20564;-58
2023/08/09 08:20:19;;;;;;;3.00;1.23;;;16.30;99.90;;;;;;5110089;27;20897;-59
2023/08/09 08:22:46;;;;;;;3.67;1.63;;;16.30;99.90;;;;;;5083874;28;20754;-59
2023/08/09 08:25:13;;;;;;;4.10;1.73;;;16.50;99.90;;;;;;5097191;28;20270;-63
2023/08/09 08:27:42;;;;;;;4.57;1.83;;;16.50;99.90;;;;;;5103123;28;20196;-65
2023/08/09 08:30:08;;;;;;;5.23;1.40;;;16.70;99.90;;;;;;5103700;28;20242;-65
2023/08/09 08:32:34;;;;;;;2.80;1.47;;;16.80;99.90;;;;;;5103204;28;20192;-62
2023/08/09 08:35:02;;;;;;;7.53;1.33;;;16.90;99.90;;;;;;5083206;28;20189;-61
2023/08/09 08:37:31;;;;;;;4.27;1.40;;;16.80;99.90;;;;;;5083447;28;20381;-64
2023/08/09 08:39:56;;;;;;;7.73;1.73;;;16.80;99.90;;;;;;5084346;28;20180;-60
2023/08/09 08:42:22;;;;;;;1.97;1.23;;;17.00;99.90;;;;;;5083203;28;20189;-62
2023/08/09 08:44:47;;;;;;;4.17;1.60;;;17.10;99.90;;;;;;5100346;28;20172;-55
2023/08/09 08:47:13;;;;;;;4.83;1.00;;;17.10;99.90;;;;;;5096057;28;20203;-55
2023/08/09 08:49:43;;;;;;;2.40;1.50;;;17.20;99.90;;;;;;5089514;28;20756;-55
2023/08/09 08:52:10;;;;;;;3.90;1.77;;;17.20;99.90;;;;;;5090162;28;20287;-56
2023/08/09 08:54:36;;;;;;;1.33;1.13;;;17.20;99.90;;;;;;5100160;28;20213;-57
2023/08/09 08:57:03;;;;;;;3.37;1.23;;;17.30;99.90;;;;;;5103242;27;20263;-55
2023/08/09 08:59:29;;;;;;;5.27;1.70;;;17.30;99.90;;;;;;5111776;27;20193;-55
2023/08/09 09:01:55;;;;;;;2.27;1.07;;;17.20;99.90;;;;;;5107670;27;20196;-56
2023/08/09 09:04:20;;;;;;;1.30;1.10;;;17.20;99.90;;;;;;5104630;27;20197;-56
2023/08/09 09:06:46;;;;;;;5.20;1.50;;;17.20;99.90;;;;;;5103724;27;20189;-55
2023/08/09 09:09:13;;;;;;;1.47;1.20;;;17.30;99.90;;;;;;5101943;28;20209;-56
2023/08/09 09:11:39;;;;;;;2.20;0.87;;;17.40;99.90;;;;;;5101714;28;20662;-56
2023/08/09 09:14:11;;;;;;;2.67;1.50;;;17.50;99.90;;;;;;5101923;28;20217;-53
2023/08/09 09:16:36;;;;;;;5.03;1.53;;;17.40;99.90;;;;;;5101919;28;20179;-55
2023/08/09 09:19:02;;;;;;;4.67;1.20;;;17.40;99.90;;;;;;5103280;27;20200;-55
2023/08/09 09:21:31;;;;;;;6.03;1.23;;;17.60;99.90;;;;;;5101379;28;20208;-55
2023/08/09 09:24:01;;;;;;;2.73;1.07;;;17.70;99.90;;;;;;5088391;28;20192;-56
2023/08/09 09:26:28;;;;;;;3.90;1.30;;;17.80;99.90;;;;;;5099282;27;20200;-54
2023/08/09 09:28:53;;;;;;;1.83;0.90;;;17.90;99.90;;;;;;5107649;27;20246;-55
2023/08/09 09:31:19;;;;;;;2.80;1.00;;;18.10;99.90;;;;;;5105407;28;20220;-54
2023/08/09 09:33:49;;;;;;;7.10;1.37;;;18.00;99.90;;;;;;5104964;27;20738;-58
2023/08/09 09:36:14;;;;;;;6.93;1.43;;;17.90;99.90;;;;;;5090156;28;20751;-57
2023/08/09 09:38:40;;;;;;;5.27;1.33;;;17.70;99.90;;;;;;5110049;27;20217;-54
2023/08/09 09:41:08;;;;;;;2.63;1.40;;;17.90;99.90;;;;;;5101480;28;20231;-55
2023/08/09 09:43:38;;;;;;;1.87;1.10;;;17.80;99.90;;;;;;5092124;28;20200;-57
2023/08/09 09:46:03;;;;;;;3.20;0.97;;;17.90;99.90;;;;;;5098145;28;20200;-58
2023/08/09 09:48:29;;;;;;;2.93;1.07;;;18.00;99.90;;;;;;5102589;28;20787;-62
2023/08/09 09:50:56;;;;;;;3.30;0.93;;;18.10;99.90;;;;;;5104511;28;20209;-57
2023/08/09 09:53:22;;;;;;;1.23;1.13;;;18.10;99.90;;;;;;5104423;28;20209;-57
2023/08/09 09:55:47;;;;;;;6.33;1.93;;;18.00;99.90;;;;;;5083665;28;20718;-58
2023/08/09 09:58:13;;;;;;;4.17;1.10;;;17.80;99.90;;;;;;5106232;28;20203;-58
2023/08/09 10:00:46;;;;;;;5.33;1.67;;;17.90;99.90;;;;;;5102937;28;20199;-58
2023/08/09 10:03:14;;;;;;;3.63;1.10;;;18.10;99.90;;;;;;5094511;28;20177;-62
2023/08/09 10:05:43;;;;;;;2.60;1.50;;;18.30;99.90;;;;;;5076414;28;20263;-61
2023/08/09 10:08:11;;;;;;;4.20;1.20;;;18.50;99.90;;;;;;5100759;28;20223;-64
2023/08/09 10:10:38;;;;;;;9.83;1.40;;;18.60;99.90;;;;;;5102193;28;20327;-62
2023/08/09 10:13:05;;;;;;;2.73;1.07;;;18.70;99.90;;;;;;5100017;28;20223;-62
2023/08/09 10:15:37;;;;;;;5.33;1.20;;;18.70;99.90;;;;;;5101772;28;20295;-63
2023/08/09 10:18:20;;;;;;;2.70;1.17;;;18.90;99.90;;;;;;5082072;28;20227;-63
2023/08/09 10:20:50;;;;;;;2.17;0.80;;;19.00;99.90;;;;;;5093011;28;20174;-58
2023/08/09 10:23:31;;;;;;;2.33;1.17;;;18.90;99.30;;;;;;5092760;28;20180;-64
2023/08/09 10:25:58;;;;;;;4.97;1.50;;;18.80;99.90;;;;;;5089860;28;20187;-63
2023/08/09 10:28:40;;;;;;;4.53;1.43;;;18.90;99.90;;;;;;5106076;28;20308;-55
2023/08/09 10:31:06;;;;;;;8.80;1.27;;;18.90;99.90;;;;;;5105017;28;20186;-56
2023/08/09 10:33:32;;;;;;;3.20;1.07;;;18.80;99.90;;;;;;5101386;28;20202;-61
2023/08/09 10:35:58;;;;;;;4.80;1.17;;;18.70;99.90;;;;;;5103860;28;20190;-56
2023/08/09 10:38:32;;;;;;;4.43;1.30;;;18.50;99.90;;;;;;5103115;28;20246;-59
2023/08/09 10:41:07;;;;;;;5.30;1.50;;;18.30;99.90;;;;;;5086233;28;20231;-59
2023/08/09 10:43:34;;;;;;;6.70;1.30;;;18.40;99.90;;;;;;5095022;28;20216;-59
2023/08/09 10:46:17;;;;;;;4.13;1.17;;;18.40;99.90;;;;;;5096560;28;20193;-70
2023/08/09 10:48:53;;;;;;;2.90;1.00;;;18.50;99.90;;;;;;5092365;28;20222;-60
2023/08/09 10:51:23;;;;;;;2.73;1.47;;;18.50;99.90;;;;;;5093705;28;20231;-60
2023/08/09 10:54:00;;;;;;;3.57;1.13;;;18.40;99.90;;;;;;5104884;28;20208;-63
2023/08/09 10:56:41;;;;;;;4.23;1.00;;;18.50;99.90;;;;;;5086106;28;20196;-63
2023/08/09 10:59:09;;;;;;;3.50;1.00;;;18.20;99.90;;;;;;5094766;28;20195;-66
2023/08/09 11:01:36;;;;;;;4.33;1.17;;;18.10;99.90;;;;;;5086006;28;20693;-68
2023/08/09 11:04:07;;;;;;;4.10;1.27;;;18.10;99.90;;;;;;5104907;28;20199;-63
2023/08/09 11:06:34;;;;;;;5.03;1.00;;;18.20;99.90;;;;;;5104395;28;20212;-64
2023/08/09 11:09:17;;;;;;;1.43;0.90;;;18.30;99.90;;;;;;5102510;27;20243;-58
2023/08/09 11:11:45;;;;;;;2.87;1.07;;;18.70;99.90;;;;;;5111466;27;20546;-60
2023/08/09 11:14:13;;;;;;;2.20;1.17;;;18.60;99.90;;;;;;5107222;27;20682;-58
2023/08/09 11:16:39;;;;;;;1.43;0.90;;;18.70;99.90;;;;;;5090357;28;20650;-57
2023/08/09 11:19:07;;;;;;;1.40;1.00;;;18.80;99.90;;;;;;5109400;27;20215;-57
2023/08/09 11:22:00;;;;;;;2.77;0.90;;;19.10;99.90;;;;;;5109408;27;20283;-57
2023/08/09 11:24:26;;;;;;;2.40;1.10;;;19.20;99.90;;;;;;5088888;28;20194;-58
2023/08/09 11:26:56;;;;;;;3.50;1.10;;;18.80;99.90;;;;;;5109527;27;20197;-57
2023/08/09 11:29:24;;;;;;;2.57;1.33;;;19.10;99.90;;;;;;5091287;27;20261;-60
2023/08/09 11:31:56;;;;;;;1.77;0.90;;;19.00;99.90;;;;;;5110378;27;20190;-56
2023/08/09 11:34:23;;;;;;;2.33;0.77;;;19.10;99.90;;;;;;5110197;27;20174;-57
2023/08/09 11:36:52;;;;;;;4.47;1.93;;;19.00;99.90;;;;;;5109583;27;20185;-58
2023/08/09 11:39:21;;;;;;;7.07;1.20;;;19.00;99.90;;;;;;5111651;27;20212;-57
2023/08/09 11:41:56;;;;;;;2.07;1.10;;;19.10;99.90;;;;;;5109415;27;20190;-60
2023/08/09 11:44:31;;;;;;;1.83;0.70;;;19.10;99.90;;;;;;5106045;27;20674;-61
2023/08/09 11:46:59;;;;;;;3.93;1.50;;;19.10;99.90;;;;;;5108320;27;20195;-57
2023/08/09 11:49:29;;;;;;;3.50;1.27;;;19.70;99.90;;;;;;5111439;27;20205;-60
2023/08/09 11:51:55;;;;;;;3.13;1.17;;;20.10;99.90;;;;;;5108368;27;20782;-58
2023/08/09 11:54:21;;;;;;;2.77;1.23;;;20.50;99.90;;;;;;5111083;27;20193;-57
2023/08/09 11:56:47;;;;;;;2.80;0.93;;;20.60;99.80;;;;;;5108734;27;20259;-55
2023/08/09 11:59:16;;;;;;;6.07;1.20;;;20.50;99.50;;;;;;5111913;27;20674;-56
2023/08/09 12:01:45;;;;;;;2.40;1.17;;;20.70;99.70;;;;;;5111242;27;20272;-61
2023/08/09 12:04:14;;;;;;;1.03;0.90;;;21.20;98.10;;;;;;5103194;28;20978;-61
2023/08/09 12:06:51;;;;;;;3.70;1.20;;;21.70;97.60;;;;;;5103577;28;20241;-61
2023/08/09 12:09:35;;;;;;;6.10;1.60;;;22.00;96.40;;;;;;5080947;28;20718;-60
2023/08/09 12:12:10;;;;;;;2.03;1.07;;;21.60;96.90;;;;;;5103322;28;20227;-60
2023/08/09 12:14:46;;;;;;;3.40;1.43;;;21.70;94.90;;;;;;5080009;28;20199;-69
2023/08/09 12:17:26;;;;;;;3.60;0.97;;;20.80;98.70;;;;;;5103313;28;20198;-75
2023/08/09 12:20:06;;;;;;;3.27;1.00;;;20.50;97.60;;;;;;5097502;28;20251;-74
2023/08/09 12:22:32;;;;;;;4.53;1.70;;;20.30;97.40;;;;;;5083220;28;20183;-65
2023/08/09 12:24:59;;;;;;;4.17;1.73;;;20.10;98.40;;;;;;5100923;27;20195;-61
2023/08/09 12:27:25;;;;;;;4.60;2.57;;;19.90;98.70;;;;;;5112934;27;20199;-57
2023/08/09 12:29:51;;;;;;;2.70;1.17;;;19.90;99.20;;;;;;5108286;27;20211;-60
2023/08/09 12:32:17;;;;;;;2.53;1.20;;;20.30;99.30;;;;;;5111237;27;20204;-59
2023/08/09 12:34:43;;;;;;;3.23;1.10;;;21.10;96.40;;;;;;5107245;27;20610;-59
2023/08/09 12:37:09;;;;;;;2.17;1.13;;;22.10;95.40;;;;;;5102422;28;20723;-60
2023/08/09 12:39:34;;;;;;;2.53;1.23;;;21.70;94.60;;;;;;5102503;28;20188;-59
2023/08/09 12:42:01;;;;;;;2.50;0.97;;;21.80;94.40;;;;;;5102872;28;20192;-59
2023/08/09 12:44:27;;;;;;;2.50;1.43;;;22.10;95.30;;;;;;5098222;28;20204;-59
2023/08/09 12:46:53;;;;;;;1.20;0.85;;;22.40;97.00;;;;;;5102650;28;20197;-60